Latest Weather Observations for Wynyard

IDT60801

Issued at 6:31 pm EST Wednesday 24 August 2016 (issued every 30 minutes, with the page automatically refreshed every 10 minutes)

About weather observations | Map of weather stations | Latest weather observations for TAS | Other Formats
Station Details ID: 091107 Name: WYNYARD AIRPORT Lat: -41.00 Lon: 145.73 Height: 12.0 m
Data from the previous 72 hours. | See also: Recent months at Wynyard
Date/Time
EST
Temp
°C
App
Temp
°C
Dew
Point
°C
Rel
Hum
%
Delta-T
°C
Wind Press
QNH
hPa
Press
MSL
hPa
Rain since
9am
mm
Dir  Spd
km/h
Gust
km/h
Spd
kts
Gust
kts
24/06:30pm 7.4 3.4 2.9 73 1.9 WSW 13 17 7 9 1011.8 1011.9 0.0
24/06:00pm 8.0 4.1 3.3 72 2.0 WSW 13 20 7 11 1011.6 1011.7 0.0
24/05:30pm 9.4 4.2 3.8 68 2.4 WSW 20 26 11 14 1011.6 1011.7 0.0
24/05:00pm 10.4 5.5 3.9 64 2.9 WSW 19 28 10 15 1011.5 1011.6 0.0
24/04:30pm 11.4 6.3 4.2 61 3.2 WSW 20 28 11 15 1011.4 1011.5 0.0
24/04:00pm 12.3 6.6 5.0 61 3.4 W 24 32 13 17 1011.3 1011.4 0.0
24/03:30pm 12.6 6.8 4.6 58 3.7 WSW 24 30 13 16 1011.3 1011.4 0.0
24/03:00pm 12.2 7.1 4.2 58 3.6 SW 20 32 11 17 1011.2 1011.3 0.0
24/02:30pm 13.9 9.6 5.3 56 4.0 WSW 17 28 9 15 1011.2 1011.3 0.0
24/02:00pm 12.3 7.2 4.3 58 3.6 W 20 26 11 14 1011.4 1011.5 0.0
24/01:30pm 12.5 7.0 4.2 57 3.8 W 22 30 12 16 1011.9 1012.0 0.0
24/01:00pm 12.0 7.4 5.6 65 3.0 SW 19 28 10 15 1012.4 1012.5 0.0
24/12:30pm 12.8 9.2 5.0 59 3.6 SW 13 24 7 13 1012.7 1012.8 0.0
24/12:00pm 11.9 8.1 3.7 57 3.7 WSW 13 20 7 11 1013.3 1013.4 0.0
24/11:30am 11.4 8.0 4.2 61 3.2 SSW 11 17 6 9 1013.8 1013.9 0.0
24/11:00am 11.0 6.9 4.5 64 2.9 SW 15 22 8 12 1014.2 1014.3 0.0
24/10:30am 11.0 6.6 4.7 65 2.8 SW 17 22 9 12 1014.4 1014.5 0.0
24/10:00am 10.0 6.4 4.8 70 2.3 WSW 13 20 7 11 1014.7 1014.8 0.0
24/09:30am 9.0 5.6 6.1 82 1.3 WSW 13 19 7 10 1015.0 1015.1 0.0
24/09:00am 7.4 3.7 6.5 94 0.4 W 15 17 8 9 1015.2 1015.3 0.2
24/08:30am 4.7 2.1 4.3 97 0.2 WNW 7 11 4 6 1015.4 1015.5 0.2
24/08:00am 1.7 -1.4 1.3 97 0.2 WSW 7 11 4 6 1015.6 1015.7 0.2
24/07:30am -0.2 -4.0 -0.8 96 0.2 WSW 9 11 5 6 1015.6 1015.7 0.0
24/07:00am -0.4 -3.7 -1.0 96 0.2 WSW 6 7 3 4 1015.7 1015.8 0.0
24/06:30am -1.2 -5.2 -1.9 95 0.2 W 9 11 5 6 1015.6 1015.7 0.0
24/06:00am -1.1 -5.4 -1.8 95 0.2 WNW 11 13 6 7 1015.5 1015.6 0.0
24/05:30am -0.1 -3.9 -0.7 96 0.2 NW 9 11 5 6 1015.3 1015.4 0.0
24/05:00am 0.0 -3.8 -0.6 96 0.2 WNW 9 11 5 6 1015.2 1015.3 0.0
24/04:30am -0.6 -4.1 -1.2 96 0.2 W 7 11 4 6 1015.1 1015.2 0.0
24/04:00am -0.1 -3.9 -0.7 96 0.2 WNW 9 11 5 6 1015.1 1015.2 0.0
24/03:30am -0.4 -3.9 -1.0 96 0.2 W 7 9 4 5 1015.1 1015.2 0.0
24/03:00am -0.8 -4.7 -1.5 95 0.2 WSW 9 11 5 6 1015.2 1015.3 0.0
24/02:30am -0.7 -4.6 -1.4 95 0.2 W 9 11 5 6 1015.6 1015.7 0.0
24/02:00am -0.1 -3.9 -0.8 95 0.2 WSW 9 11 5 6 1015.8 1015.9 0.0
24/01:30am 0.8 -2.9 0.1 95 0.3 WSW 9 11 5 6 1015.8 1015.9 0.0
24/01:00am 0.9 -2.8 0.2 95 0.3 WNW 9 11 5 6 1015.9 1016.0 0.0
24/12:30am 1.1 -2.0 0.2 94 0.3 WSW 6 7 3 4 1016.1 1016.2 0.0
24/12:00am 2.1 -0.8 1.2 94 0.3 SSW 6 9 3 5 1016.4 1016.5 0.0
 
Date/Time
EST
Temp
°C
App
Temp
°C
Dew
Point
°C
Rel
Hum
%
Delta-T
°C
Wind Press
QNH
hPa
Press
MSL
hPa
Rain since
9am
mm
Dir  Spd
km/h
Gust
km/h
Spd
kts
Gust
kts
23/11:30pm 1.8 -1.4 0.9 94 0.3 WSW 7 9 4 5 1016.8 1016.9 0.0
23/11:00pm 1.8 -2.2 0.6 92 0.4 W 11 13 6 7 1017.1 1017.1 0.0
23/10:30pm 2.6 -0.9 1.4 92 0.5 WNW 9 11 5 6 1017.3 1017.3 0.0
23/10:00pm 2.4 -0.7 1.2 92 0.5 WSW 7 9 4 5 1017.4 1017.4 0.0
23/09:30pm 2.4 -1.6 0.8 89 0.6 W 11 13 6 7 1017.3 1017.3 0.0
23/09:00pm 4.2 1.5 2.4 88 0.7 W 6 7 3 4 1017.2 1017.2 0.0
23/08:30pm 4.3 0.6 2.3 87 0.8 WSW 11 13 6 7 1016.8 1016.9 0.0
23/08:00pm 4.4 0.3 2.3 86 0.8 WSW 13 17 7 9 1016.7 1016.8 0.0
23/07:30pm 4.4 -0.2 1.6 82 1.1 WSW 15 17 8 9 1016.6 1016.7 0.0
23/07:00pm 5.7 1.1 1.8 76 1.6 WSW 15 17 8 9 1016.5 1016.6 0.0
23/06:30pm 6.8 2.3 2.3 73 1.8 WSW 15 17 8 9 1016.1 1016.2 0.0
23/06:00pm 7.6 3.2 2.5 70 2.1 WSW 15 17 8 9 1015.8 1015.9 0.0
23/05:30pm 8.8 4.8 2.6 65 2.6 WSW 13 15 7 8 1015.5 1015.6 0.0
23/05:00pm 11.6 7.1 2.4 53 4.0 W 15 20 8 11 1015.2 1015.3 0.0
23/04:30pm 12.5 8.0 2.4 50 4.4 SSW 15 24 8 13 1014.9 1015.0 0.0
23/04:00pm 12.5 6.9 1.5 47 4.7 SW 20 30 11 16 1014.6 1014.7 0.0
23/03:30pm 12.5 6.6 1.8 48 4.6 SW 22 33 12 18 1014.4 1014.5 0.0
23/03:00pm 12.0 6.5 1.6 49 4.4 SSW 20 30 11 16 1014.2 1014.3 0.0
23/02:30pm 12.7 7.6 2.8 51 4.4 SSW 19 28 10 15 1014.0 1014.1 0.0
23/02:00pm 12.8 7.4 2.4 49 4.5 SSW 20 28 11 15 1014.2 1014.3 0.0
23/01:30pm 12.4 7.9 2.3 50 4.4 SSW 15 26 8 14 1014.3 1014.4 0.0
23/01:00pm 12.7 7.6 2.8 51 4.3 SW 19 24 10 13 1014.6 1014.7 0.0
23/12:30pm 12.5 7.6 4.0 56 3.8 SSW 19 24 10 13 1015.0 1015.1 0.0
23/12:00pm 11.7 5.9 2.5 53 4.0 WSW 22 32 12 17 1015.3 1015.4 0.0
23/11:30am 11.4 6.0 2.2 53 3.9 SW 20 30 11 16 1015.7 1015.8 0.0
23/11:00am 11.5 6.6 4.3 61 3.2 SW 19 32 10 17 1015.9 1016.0 0.0
23/10:30am 10.3 5.7 3.6 63 2.9 WSW 17 26 9 14 1016.0 1016.1 0.0
23/10:00am 9.3 5.5 3.7 68 2.4 NW 13 17 7 9 1016.0 1016.1 0.0
23/09:30am 7.5 4.9 6.1 91 0.6 W 9 11 5 6 1016.1 1016.2 0.0
23/09:00am 5.0 2.4 4.4 96 0.3 W 7 9 4 5 1016.2 1016.3 1.6
23/08:30am 3.0 -0.3 2.6 97 0.2 WNW 9 13 5 7 1016.1 1016.2 1.6
23/08:00am 0.5 -3.2 0.1 97 0.1 WSW 9 11 5 6 1016.1 1016.2 1.6
23/07:30am -0.9 -4.4 -1.3 97 0.1 SW 7 9 4 5 1015.7 1015.8 1.4
23/07:00am -1.8 -5.8 -2.4 96 0.1 W 9 13 5 7 1015.4 1015.5 1.4
23/06:30am -1.5 -5.1 -2.1 96 0.1 W 7 9 4 5 1015.2 1015.3 1.4
23/06:00am -1.1 -5.0 -1.7 96 0.2 W 9 11 5 6 1014.9 1015.0 1.4
23/05:30am -1.4 -5.7 -2.0 96 0.1 WSW 11 15 6 8 1014.8 1014.9 1.4
23/05:00am -1.3 -5.3 -1.9 96 0.1 W 9 13 5 7 1014.7 1014.8 1.4
23/04:30am -0.4 -4.6 -1.0 96 0.2 WSW 11 13 6 7 1014.7 1014.8 1.4
23/04:00am -0.5 -4.3 -1.1 96 0.2 W 9 13 5 7 1014.5 1014.6 1.4
23/03:30am -0.1 -3.9 -0.7 96 0.2 WNW 9 11 5 6 1014.5 1014.6 1.4
23/03:22am 0.2 -3.6 -0.4 96 0.2 W 9 11 5 6 1014.6 1014.7 1.4
23/03:04am -0.3 -4.1 -1.0 95 0.2 WSW 9 11 5 6 1014.7 1014.8 1.4
23/03:00am -0.3 -4.1 -1.0 95 0.2 WSW 9 11 5 6 1014.7 1014.8 1.4
23/02:30am 1.0 -2.1 0.4 96 0.2 W 6 7 3 4 1014.9 1015.0 1.4
23/02:00am 1.1 -1.9 0.5 96 0.2 W 6 7 3 4 1015.2 1015.3 1.4
23/01:39am 0.1 -3.7 -0.6 95 0.3 SW 9 11 5 6 1015.3 1015.4 1.4
23/01:30am -0.1 -3.9 -0.8 95 0.2 SW 9 11 5 6 1015.3 1015.4 1.4
23/01:19am 0.5 -2.8 -0.2 95 0.3 WSW 7 9 4 5 1015.4 1015.5 1.4
23/01:14am 0.8 -2.5 0.1 95 0.3 W 7 7 4 4 1015.4 1015.5 1.4
23/01:00am 1.6 -1.4 0.9 95 0.3 WNW 6 6 3 3 1015.4 1015.5 1.4
23/12:30am 1.7 -1.3 1.0 95 0.3 WNW 6 7 3 4 1015.2 1015.3 1.4
23/12:28am 1.8 -1.2 1.1 95 0.3 WNW 6 7 3 4 1015.2 1015.3 1.4
23/12:00am 1.4 -0.5 0.7 95 0.3 CALM 0 0 0 0 1015.1 1015.2 1.4
 
Date/Time
EST
Temp
°C
App
Temp
°C
Dew
Point
°C
Rel
Hum
%
Delta-T
°C
Wind Press
QNH
hPa
Press
MSL
hPa
Rain since
9am
mm
Dir  Spd
km/h
Gust
km/h
Spd
kts
Gust
kts
22/11:30pm 1.9 -1.0 1.2 95 0.3 SW 6 7 3 4 1015.1 1015.2 1.4
22/11:00pm 2.0 -0.9 1.3 95 0.3 SW 6 9 3 5 1015.1 1015.2 1.4
22/10:30pm 2.6 0.9 1.7 94 0.3 CALM 0 0 0 0 1014.9 1015.0 1.4
22/10:00pm 3.3 0.4 2.4 94 0.4 SW 7 9 4 5 1014.9 1015.0 1.4
22/09:30pm 2.9 -0.1 1.7 92 0.5 W 7 7 4 4 1014.8 1014.9 1.4
22/09:00pm 4.3 2.9 3.3 93 0.4 CALM 0 0 0 0 1014.5 1014.6 1.4
22/08:30pm 3.0 0.0 1.8 92 0.5 W 7 9 4 5 1014.3 1014.4 1.4
22/08:00pm 3.9 0.2 2.6 91 0.5 W 11 13 6 7 1014.1 1014.2 1.4
22/07:30pm 4.7 1.1 3.0 89 0.7 W 11 13 6 7 1013.9 1014.0 1.4
22/07:00pm 5.2 1.2 2.9 85 0.9 W 13 17 7 9 1013.6 1013.7 1.4
22/06:30pm 7.1 2.6 4.2 82 1.3 W 17 20 9 11 1013.3 1013.4 1.4
22/06:00pm 6.9 2.7 3.9 81 1.3 W 15 20 8 11 1012.9 1013.0 1.4
22/05:30pm 9.1 4.8 5.1 76 1.8 W 17 19 9 10 1012.5 1012.6 1.4
22/05:00pm 10.0 5.1 5.2 72 2.2 W 20 24 11 13 1012.2 1012.3 1.4
22/04:30pm 10.9 5.2 4.8 66 2.8 W 24 30 13 16 1011.9 1012.0 1.4
22/04:00pm 11.3 6.9 5.0 65 2.9 WSW 17 24 9 13 1011.8 1011.9 1.4
22/03:30pm 12.1 8.5 6.6 69 2.6 WSW 15 19 8 10 1011.7 1011.8 1.4
22/03:00pm 11.4 7.5 6.9 74 2.1 WSW 17 24 9 13 1011.8 1011.9 1.4
22/02:30pm 10.2 6.7 7.1 81 1.5 W 15 24 8 13 1011.9 1012.0 1.4
22/02:06pm 9.4 5.8 6.8 84 1.2 W 15 20 8 11 1012.0 1012.1 1.4
22/02:00pm 9.5 6.4 7.1 85 1.1 WSW 13 19 7 10 1012.0 1012.1 1.4
22/01:48pm 8.4 3.1 5.0 79 1.5 W 22 37 12 20 1012.1 1012.2 1.0
22/01:30pm 11.1 7.2 7.0 76 2.0 WNW 17 22 9 12 1012.0 1012.1 0.0
22/01:00pm 9.8 3.4 5.0 72 2.2 WSW 28 41 15 22 1012.3 1012.4 0.0
22/12:49pm 11.0 5.3 4.7 65 2.8 W 24 52 13 28 1012.1 1012.2 0.0
22/12:30pm 11.1 5.9 5.6 69 2.5 W 22 35 12 19 1012.1 1012.2 0.0
22/12:00pm 12.5 6.2 3.5 54 4.0 W 26 37 14 20 1012.3 1012.4 0.0
22/11:30am 12.1 5.5 4.1 58 3.6 W 28 35 15 19 1012.6 1012.7 0.0
22/11:00am 11.8 7.1 5.0 63 3.1 W 19 30 10 16 1012.7 1012.8 0.0
22/10:30am 11.0 7.4 4.9 66 2.8 W 13 22 7 12 1012.8 1012.9 0.0
22/10:00am 9.1 6.3 5.3 77 1.7 WNW 9 11 5 6 1012.9 1013.0 0.0
22/09:30am 7.3 4.7 6.1 92 0.5 WNW 9 11 5 6 1012.9 1013.0 0.0
22/09:00am 5.4 2.5 4.7 95 0.3 WNW 9 11 5 6 1013.0 1013.1 0.2
22/08:30am 3.7 0.5 3.1 96 0.2 W 9 9 5 5 1012.9 1013.0 0.2
22/08:00am 2.2 -1.6 1.6 96 0.2 WSW 11 11 6 6 1012.8 1012.9 0.2
22/07:30am 1.7 -1.8 1.1 96 0.2 W 9 11 5 6 1012.5 1012.6 0.2
22/07:00am 2.3 -1.5 1.7 96 0.2 NW 11 11 6 6 1012.2 1012.3 0.2
22/06:30am 1.1 -1.9 0.5 96 0.2 WNW 6 7 3 4 1011.9 1012.0 0.2
22/06:00am 1.0 -2.6 0.4 96 0.2 WNW 9 11 5 6 1011.9 1012.0 0.2
22/05:30am 1.4 -2.2 0.8 96 0.2 WSW 9 11 5 6 1011.8 1011.9 0.2
22/05:00am 1.3 -2.3 0.7 96 0.2 WNW 9 11 5 6 1011.9 1012.0 0.2
22/04:30am 1.5 -1.5 0.8 95 0.3 WNW 6 7 3 4 1011.8 1011.9 0.2
22/04:00am 1.6 -0.2 0.9 95 0.3 CALM 0 6 0 3 1011.7 1011.8 0.2
22/03:30am 1.6 -2.3 0.9 95 0.3 W 11 15 6 8 1011.8 1011.9 0.2
22/03:00am 1.7 -2.2 1.0 95 0.3 WNW 11 15 6 8 1012.0 1012.1 0.0
22/02:30am 1.2 -3.2 0.5 95 0.3 WNW 13 15 7 8 1012.0 1012.1 0.0
22/02:00am 1.9 -2.4 1.2 95 0.3 WNW 13 15 7 8 1012.2 1012.3 0.0
22/01:30am 1.5 -2.1 0.6 94 0.3 WNW 9 11 5 6 1012.1 1012.2 0.0
22/01:00am 1.8 -2.5 1.1 95 0.3 WNW 13 15 7 8 1012.2 1012.3 0.0
22/12:30am 1.5 -2.1 0.5 93 0.4 W 9 11 5 6 1012.1 1012.2 0.0
22/12:00am 2.1 -1.8 1.2 94 0.3 WNW 11 13 6 7 1011.9 1012.0 0.0
 
Date/Time
EST
Temp
°C
App
Temp
°C
Dew
Point
°C
Rel
Hum
%
Delta-T
°C
Wind Press
QNH
hPa
Press
MSL
hPa
Rain since
9am
mm
Dir  Spd
km/h
Gust
km/h
Spd
kts
Gust
kts
21/11:30pm 1.6 -2.4 0.6 93 0.4 WNW 11 15 6 8 1011.9 1012.0 0.0
21/11:00pm 2.3 -0.6 1.3 93 0.4 WSW 6 7 3 4 1011.7 1011.8 0.0
21/10:30pm 3.0 -1.2 1.8 92 0.5 WNW 13 13 7 7 1011.8 1011.9 0.0
21/10:00pm 3.8 0.2 2.8 93 0.4 WNW 11 13 6 7 1011.7 1011.8 0.0
21/09:30pm 3.2 -0.5 2.2 93 0.4 WNW 11 11 6 6 1011.5 1011.6 0.0
21/09:00pm 2.3 -1.2 1.1 92 0.5 WSW 9 11 5 6 1011.5 1011.6 0.0
21/08:30pm 2.8 -0.3 1.5 91 0.5 W 7 11 4 6 1011.2 1011.3 0.0
21/08:00pm 3.9 0.2 2.3 89 0.6 W 11 11 6 6 1011.1 1011.2 0.0
21/07:30pm 4.2 0.4 1.9 85 0.9 W 11 13 6 7 1011.0 1011.1 0.0
21/07:00pm 5.6 2.7 2.6 81 1.2 WNW 7 9 4 5 1010.8 1010.9 0.0

Other Formats:

Comma delimited format used in spreadsheet applications
http://www.bom.gov.au/fwo/IDT60801/IDT60801.95957.axf

JavaScript Object Notation format (JSON) in row-major order
http://www.bom.gov.au/fwo/IDT60801/IDT60801.95957.json